Time;durP1;ratioP1;P1;durP2;ratioP2;P2;SDS_P1;SDS_P2;PMS_P1;PMS_P2;Temp;Humidity;BMP_temperature;BMP_pressure;BME280_temperature;BME280_humidity;BME280_pressure;Samples;Min_cycle;Max_cycle;Signal;HPM_P1;HPM_P2
2023/06/01 00:02:01;;;;;;;23.70;21.20;;;;;;;11.61;100.00;99154.64;109398;1253;59102;-73
2023/06/01 00:04:27;;;;;;;22.20;19.40;;;;;;;11.58;100.00;99152.31;109466;1253;59055;-72
2023/06/01 00:06:54;;;;;;;20.90;18.70;;;;;;;11.56;100.00;99151.64;109438;1253;65586;-73
2023/06/01 00:09:21;;;;;;;22.20;19.10;;;;;;;11.52;100.00;99151.70;109444;1253;59757;-72
2023/06/01 00:11:48;;;;;;;23.10;18.50;;;;;;;11.47;100.00;99148.45;109419;1253;65160;-73
2023/06/01 00:14:15;;;;;;;20.60;18.50;;;;;;;11.44;100.00;99153.31;109053;1253;59060;-73
2023/06/01 00:16:42;;;;;;;21.00;17.60;;;;;;;11.39;100.00;99151.70;109021;1253;59078;-73
2023/06/01 00:19:09;;;;;;;23.40;18.50;;;;;;;11.36;100.00;99150.30;109433;1253;66153;-73
2023/06/01 00:21:36;;;;;;;20.50;18.30;;;;;;;11.33;100.00;99151.77;109467;1253;60115;-73
2023/06/01 00:24:03;;;;;;;21.00;18.70;;;;;;;11.29;100.00;99152.16;109394;1253;64209;-73
2023/06/01 00:26:32;;;;;;;22.50;18.60;;;;;;;11.25;100.00;99153.33;109102;1253;59070;-73
2023/06/01 00:29:00;;;;;;;23.90;20.80;;;;;;;11.18;100.00;99151.52;109411;1253;59149;-72
2023/06/01 00:31:27;;;;;;;24.30;19.40;;;;;;;11.13;100.00;99148.45;109194;1253;66142;-72
2023/06/01 00:33:53;;;;;;;26.00;20.70;;;;;;;11.11;100.00;99143.98;109429;1253;61106;-73
2023/06/01 00:36:20;;;;;;;22.20;18.80;;;;;;;11.08;100.00;99144.02;109399;1253;65192;-73
2023/06/01 00:38:47;;;;;;;25.50;19.80;;;;;;;11.04;100.00;99144.94;109442;1253;58949;-72
2023/06/01 00:41:13;;;;;;;19.20;17.10;;;;;;;11.01;100.00;99146.02;109114;1253;59057;-72
2023/06/01 00:43:40;;;;;;;22.40;17.50;;;;;;;10.96;100.00;99144.27;109432;1253;66268;-72
2023/06/01 00:46:07;;;;;;;21.80;18.10;;;;;;;10.91;100.00;99149.00;109454;1253;61191;-72
2023/06/01 00:48:34;;;;;;;29.40;21.60;;;;;;;10.88;100.00;99145.67;109384;1253;64726;-72
2023/06/01 00:51:01;;;;;;;23.80;19.50;;;;;;;10.87;100.00;99144.86;109385;1253;59038;-73
2023/06/01 00:53:27;;;;;;;25.80;19.90;;;;;;;10.86;100.00;99146.16;109408;1253;58951;-71
2023/06/01 00:55:54;;;;;;;21.90;18.60;;;;;;;10.85;100.00;99143.90;109381;1253;67368;-72
2023/06/01 00:58:20;;;;;;;22.50;18.70;;;;;;;10.86;100.00;99147.02;109170;1253;61209;-72
2023/06/01 01:00:48;;;;;;;23.10;18.60;;;;;;;10.86;100.00;99147.73;109439;1253;63856;-73
2023/06/01 01:03:15;;;;;;;25.00;20.20;;;;;;;10.84;100.00;99147.39;109423;1253;59145;-72
2023/06/01 01:05:42;;;;;;;25.00;19.10;;;;;;;10.80;100.00;99147.05;109450;1253;59115;-72
2023/06/01 01:08:29;;;;;;;24.70;20.50;;;;;;;10.77;100.00;99145.48;109449;1253;66148;-72
2023/06/01 01:11:01;;;;;;;24.00;19.40;;;;;;;10.74;100.00;99146.23;109399;1253;60119;-72
2023/06/01 01:13:39;;;;;;;24.70;20.10;;;;;;;10.71;100.00;99145.86;109421;1253;65141;-73
2023/06/01 01:16:29;;;;;;;25.20;20.00;;;;;;;10.69;100.00;99150.98;109393;1253;59396;-73
2023/06/01 01:18:58;;;;;;;25.40;20.80;;;;;;;10.66;100.00;99151.86;109471;1253;59180;-73
2023/06/01 01:21:38;;;;;;;22.90;19.10;;;;;;;10.63;100.00;99149.41;109413;1253;66058;-72
2023/06/01 01:24:22;;;;;;;26.30;19.90;;;;;;;10.60;100.00;99151.02;109034;1253;60137;-73
2023/06/01 01:27:27;;;;;;;23.80;18.60;;;;;;;10.57;100.00;99147.86;109397;1253;64699;-73
2023/06/01 01:29:55;;;;;;;22.70;18.90;;;;;;;10.53;100.00;99143.83;108701;1263;59022;-72
2023/06/01 01:32:23;;;;;;;21.20;18.80;;;;;;;10.51;100.00;99141.46;108729;1265;59354;-73
2023/06/01 01:34:51;;;;;;;24.90;19.10;;;;;;;10.49;100.00;99138.94;108718;1264;66694;-72
2023/06/01 01:37:17;;;;;;;23.00;18.30;;;;;;;10.47;100.00;99136.80;108751;1264;60888;-72
2023/06/01 01:39:44;;;;;;;24.10;18.30;;;;;;;10.43;100.00;99136.66;108732;1264;64774;-72
2023/06/01 01:42:11;;;;;;;20.50;17.70;;;;;;;10.39;100.00;99134.10;108710;1266;59995;-72
2023/06/01 01:44:37;;;;;;;20.70;17.60;;;;;;;10.33;100.00;99131.45;108749;1263;58963;-73
2023/06/01 01:47:25;;;;;;;21.30;17.30;;;;;;;10.28;100.00;99133.38;108723;1263;65745;-73
2023/06/01 01:49:58;;;;;;;20.30;18.00;;;;;;;10.23;100.00;99135.77;108717;1264;59083;-73
2023/06/01 01:52:42;;;;;;;21.60;16.90;;;;;;;10.17;100.00;99132.29;108722;1264;64877;-73
2023/06/01 01:55:10;;;;;;;20.60;16.50;;;;;;;10.12;100.00;99127.77;108729;1263;58946;-73
2023/06/01 01:57:39;;;;;;;21.90;16.60;;;;;;;10.08;100.00;99123.39;108730;1264;59038;-73
2023/06/01 02:00:34;;;;;;;20.20;16.70;;;;;;;10.04;100.00;99128.79;108736;1264;67622;-73
2023/06/01 02:03:01;;;;;;;22.50;18.20;;;;;;;10.01;100.00;99126.88;108744;1266;61085;-73
2023/06/01 02:05:27;;;;;;;21.20;18.10;;;;;;;9.98;100.00;99125.80;108746;1264;65070;-73
2023/06/01 02:07:54;;;;;;;24.70;17.90;;;;;;;9.97;100.00;99124.84;109080;1255;59425;-73
2023/06/01 02:10:21;;;;;;;21.40;17.70;;;;;;;9.97;100.00;99119.88;108973;1256;59059;-73
2023/06/01 02:12:47;;;;;;;22.70;18.80;;;;;;;9.96;100.00;99114.91;109183;1255;65995;-73
2023/06/01 02:15:14;;;;;;;21.00;18.70;;;;;;;9.97;100.00;99112.73;109179;1255;61078;-73
2023/06/01 02:17:41;;;;;;;21.90;18.40;;;;;;;9.96;100.00;99113.35;108993;1256;63721;-73
2023/06/01 02:20:09;;;;;;;20.80;18.10;;;;;;;9.95;100.00;99108.42;109193;1256;58975;-71
2023/06/01 02:22:36;;;;;;;24.00;18.70;;;;;;;9.97;100.00;99107.76;109015;1256;59019;-72
2023/06/01 02:25:04;;;;;;;25.20;19.90;;;;;;;9.97;100.00;99107.75;109172;1256;67251;-71
2023/06/01 02:27:31;;;;;;;20.90;18.60;;;;;;;9.96;100.00;99107.83;109175;1255;60352;-72
2023/06/01 02:29:58;;;;;;;23.70;18.90;;;;;;;9.95;100.00;99107.76;109368;1253;65226;-72
2023/06/01 02:32:25;;;;;;;23.20;18.70;;;;;;;9.96;100.00;99107.15;109425;1253;59011;-73
2023/06/01 02:34:52;;;;;;;23.00;18.80;;;;;;;9.97;100.00;99104.58;109446;1253;59014;-72
2023/06/01 02:37:18;;;;;;;21.90;18.50;;;;;;;9.96;100.00;99108.58;109256;1253;66151;-73
2023/06/01 02:39:45;;;;;;;22.00;19.00;;;;;;;9.94;100.00;99103.92;109415;1253;61343;-73
2023/06/01 02:42:12;;;;;;;21.90;17.90;;;;;;;9.92;100.00;99102.95;109383;1253;64932;-73
2023/06/01 02:44:38;;;;;;;19.60;17.50;;;;;;;9.91;100.00;99104.41;109443;1253;58943;-73
2023/06/01 02:47:05;;;;;;;21.30;18.50;;;;;;;9.91;100.00;99100.90;109426;1253;59057;-73
2023/06/01 02:49:32;;;;;;;24.60;18.10;;;;;;;9.92;100.00;99102.24;108994;1253;65981;-72
2023/06/01 02:51:58;;;;;;;21.20;18.80;;;;;;;9.94;100.00;99102.63;109452;1254;61022;-72
2023/06/01 02:54:25;;;;;;;21.90;18.20;;;;;;;9.95;100.00;99100.06;109463;1253;64035;-72
2023/06/01 02:56:52;;;;;;;18.30;16.40;;;;;;;9.95;100.00;99100.41;109401;1253;59488;-72
2023/06/01 02:59:18;;;;;;;20.90;17.20;;;;;;;9.96;100.00;99100.00;109438;1253;58896;-73
2023/06/01 03:01:46;;;;;;;18.60;16.70;;;;;;;9.99;100.00;99098.56;109424;1253;67225;-72
2023/06/01 03:04:13;;;;;;;23.50;17.20;;;;;;;10.03;100.00;99095.70;109272;1253;61171;-73
2023/06/01 03:06:40;;;;;;;20.90;17.30;;;;;;;10.05;100.00;99092.51;109389;1253;64740;-73
2023/06/01 03:09:17;;;;;;;22.90;17.00;;;;;;;10.08;100.00;99092.86;109400;1254;59025;-73
2023/06/01 03:11:43;;;;;;;19.40;16.20;;;;;;;10.13;100.00;99092.41;109064;1253;58982;-73
2023/06/01 03:14:10;;;;;;;19.90;15.80;;;;;;;10.17;100.00;99094.26;109450;1254;66014;-74
2023/06/01 03:16:37;;;;;;;19.70;15.80;;;;;;;10.21;100.00;99094.20;109005;1253;61009;-74
2023/06/01 03:19:04;;;;;;;17.30;15.20;;;;;;;10.24;100.00;99094.52;109230;1254;65168;-73
2023/06/01 03:21:31;;;;;;;20.20;16.60;;;;;;;10.39;100.00;99093.77;109415;1253;59295;-73
2023/06/01 03:23:58;;;;;;;18.00;15.30;;;;;;;11.09;100.00;99093.08;109432;1254;59267;-73
2023/06/01 03:26:25;;;;;;;21.20;17.00;;;;;;;12.13;100.00;99091.15;109035;1254;66784;-73
2023/06/01 03:28:51;;;;;;;20.20;16.20;;;;;;;13.07;100.00;99086.64;109400;1254;60121;-73
2023/06/01 03:31:18;;;;;;;19.60;15.20;;;;;;;13.84;100.00;99087.30;109402;1253;65255;-71
2023/06/01 03:33:45;;;;;;;19.90;15.30;;;;;;;14.60;100.00;99081.50;109399;1253;59022;-72
2023/06/01 03:36:11;;;;;;;16.10;13.80;;;;;;;15.38;100.00;99080.34;109456;1254;59039;-72
2023/06/01 03:38:38;;;;;;;16.30;13.70;;;;;;;16.11;99.11;99075.51;109453;1253;66671;-72
2023/06/01 03:41:05;;;;;;;15.30;13.80;;;;;;;16.79;94.81;99073.37;109453;1253;60349;-73
2023/06/01 03:43:31;;;;;;;14.40;12.80;;;;;;;17.38;90.61;99075.58;109397;1254;63811;-72
2023/06/01 03:45:58;;;;;;;15.60;13.90;;;;;;;17.90;86.12;99076.98;109391;1258;58973;-73
2023/06/01 03:48:24;;;;;;;18.70;14.00;;;;;;;18.34;83.77;99075.40;109397;1254;59077;-73
2023/06/01 03:50:51;;;;;;;19.10;13.90;;;;;;;18.89;80.85;99075.98;109398;1254;65976;-72
2023/06/01 03:53:17;;;;;;;19.10;14.00;;;;;;;19.30;77.87;99074.89;109421;1253;60211;-72
2023/06/01 03:55:44;;;;;;;17.00;13.50;;;;;;;19.63;76.21;99072.94;109384;1253;64846;-72
2023/06/01 03:58:11;;;;;;;19.20;14.10;;;;;;;20.08;74.54;99073.33;109360;1256;59375;-73
2023/06/01 04:00:38;;;;;;;21.90;12.60;;;;;;;20.55;72.77;99067.48;109466;1253;59186;-73
2023/06/01 04:03:07;;;;;;;20.50;13.50;;;;;;;21.00;71.10;99064.45;109427;1254;67264;-73
2023/06/01 04:05:36;;;;;;;19.60;13.30;;;;;;;21.45;69.28;99062.80;109431;1254;60179;-73
2023/06/01 04:08:02;;;;;;;17.60;12.80;;;;;;;21.80;67.66;99063.88;109434;1254;65221;-72
2023/06/01 04:10:29;;;;;;;15.80;11.80;;;;;;;22.15;66.53;99062.86;109379;1256;58991;-73
2023/06/01 04:12:55;;;;;;;17.90;12.20;;;;;;;22.51;65.22;99061.74;109422;1254;58932;-73
2023/06/01 04:15:22;;;;;;;16.10;12.10;;;;;;;22.78;63.78;99061.98;109423;1253;66160;-72
2023/06/01 04:17:49;;;;;;;12.40;11.10;;;;;;;22.91;62.80;99064.95;109394;1253;60249;-72
2023/06/01 04:20:16;;;;;;;13.90;10.90;;;;;;;23.09;62.14;99059.86;109392;1254;64170;-73
2023/06/01 04:22:44;;;;;;;13.90;11.10;;;;;;;23.32;61.05;99058.39;109376;1253;58947;-73
2023/06/01 04:25:17;;;;;;;13.60;11.30;;;;;;;23.53;59.72;99057.23;109417;1254;59341;-72
2023/06/01 04:27:45;;;;;;;11.90;10.80;;;;;;;23.72;58.61;99056.59;109392;1254;66146;-72
2023/06/01 04:30:15;;;;;;;13.70;11.10;;;;;;;23.79;58.09;99057.73;109028;1254;60920;-73
2023/06/01 04:32:44;;;;;;;11.90;10.70;;;;;;;23.88;57.51;99056.64;109414;1254;65528;-72
2023/06/01 04:35:10;;;;;;;11.70;10.60;;;;;;;24.14;56.57;99056.77;109404;1253;58974;-73
2023/06/01 04:37:39;;;;;;;12.50;11.20;;;;;;;24.34;56.03;99056.84;109446;1254;59116;-73
2023/06/01 04:40:08;;;;;;;11.20;10.10;;;;;;;24.64;55.42;99057.49;109440;1253;65990;-72
2023/06/01 04:42:41;;;;;;;13.00;11.50;;;;;;;24.91;55.04;99054.44;109448;1254;60098;-73
2023/06/01 04:45:10;;;;;;;12.50;11.10;;;;;;;25.15;53.94;99051.20;109386;1253;63712;-73
2023/06/01 04:47:37;;;;;;;;;;;;;;;25.15;53.28;99047.92;109363;1254;58988;-73
2023/06/01 04:50:09;;;;;;;15.20;13.20;;;;;;;25.00;52.67;99053.62;109382;1254;59073;-73
2023/06/01 04:52:37;;;;;;;13.90;12.50;;;;;;;25.06;51.98;99050.16;109194;1255;67211;-73
2023/06/01 04:55:07;;;;;;;14.70;12.60;;;;;;;25.19;51.83;99050.42;109423;1254;61573;-73
2023/06/01 04:57:35;;;;;;;18.10;13.60;;;;;;;25.31;51.36;99051.42;109007;1253;64755;-73
2023/06/01 05:00:13;;;;;;;14.80;13.30;;;;;;;25.34;50.57;99048.14;109366;1254;59210;-72
2023/06/01 05:02:40;;;;;;;13.20;11.40;;;;;;;25.17;49.84;99045.20;109384;1254;59043;-73
2023/06/01 05:05:08;;;;;;;13.90;12.60;;;;;;;24.84;49.61;99047.13;109378;1255;66136;-73
2023/06/01 05:07:38;;;;;;;15.00;12.10;;;;;;;24.55;49.37;99046.70;109318;1253;60802;-73
2023/06/01 05:10:07;;;;;;;12.40;11.20;;;;;;;24.18;49.67;99047.72;109405;1253;65284;-72
2023/06/01 05:12:34;;;;;;;13.80;12.00;;;;;;;23.78;50.02;99046.92;108907;1254;59271;-72
2023/06/01 05:15:02;;;;;;;14.00;11.90;;;;;;;23.46;50.27;99040.85;108999;1254;59037;-72
2023/06/01 05:17:28;;;;;;;13.90;12.40;;;;;;;23.29;51.03;99039.02;109020;1253;66297;-72
2023/06/01 05:19:56;;;;;;;14.20;12.80;;;;;;;23.23;51.45;99042.82;109424;1253;60049;-73
2023/06/01 05:22:24;;;;;;;12.90;9.80;;;;;;;23.37;51.50;99042.55;109388;1254;64897;-73
2023/06/01 05:24:50;;;;;;;12.20;9.40;;;;;;;23.63;51.17;99036.26;109096;1254;59429;-73
2023/06/01 05:27:18;;;;;;;11.00;9.40;;;;;;;23.88;50.73;99033.64;109397;1254;59166;-73
2023/06/01 05:29:44;;;;;;;13.00;10.00;;;;;;;23.99;50.75;99034.56;109427;1254;66424;-73
2023/06/01 05:32:11;;;;;;;10.40;8.90;;;;;;;24.13;50.62;99032.70;109392;1254;61179;-72
2023/06/01 05:34:38;;;;;;;15.30;10.00;;;;;;;24.22;50.84;99033.06;109361;1254;64204;-73
2023/06/01 05:37:05;;;;;;;11.40;9.30;;;;;;;24.35;50.78;99027.07;109393;1254;58962;-72
2023/06/01 05:39:31;;;;;;;10.40;8.90;;;;;;;24.55;50.43;99025.87;109393;1253;59904;-72
2023/06/01 05:41:58;;;;;;;11.10;8.80;;;;;;;24.82;50.02;99024.36;109385;1253;67303;-71
2023/06/01 05:44:25;;;;;;;10.50;8.90;;;;;;;24.99;49.43;99022.23;109386;1254;61133;-71
2023/06/01 05:46:52;;;;;;;11.90;9.30;;;;;;;25.17;49.09;99023.02;109017;1254;64511;-72
2023/06/01 05:49:19;;;;;;;11.20;8.20;;;;;;;25.40;48.80;99024.39;109367;1254;59042;-72
2023/06/01 05:51:46;;;;;;;12.70;8.50;;;;;;;25.77;48.54;99019.79;109416;1254;59017;-72
2023/06/01 05:54:12;;;;;;;11.00;8.70;;;;;;;26.21;48.12;99016.27;109365;1254;66800;-72
2023/06/01 05:56:42;;;;;;;13.30;8.90;;;;;;;26.48;47.30;99015.30;109364;1253;69647;-72
2023/06/01 05:59:08;;;;;;;14.00;8.10;;;;;;;26.72;47.21;99014.48;109349;1253;64791;-72
2023/06/01 06:01:36;;;;;;;10.80;8.70;;;;;;;27.01;46.72;99012.14;109158;1257;59144;-72
2023/06/01 06:04:02;;;;;;;11.40;8.10;;;;;;;27.28;46.31;99010.96;109403;1254;59038;-72
2023/06/01 06:06:30;;;;;;;15.60;8.30;;;;;;;27.45;45.48;99009.08;109392;1254;67024;-72
2023/06/01 06:08:57;;;;;;;13.50;8.60;;;;;;;27.49;44.62;99012.05;109378;1253;59876;-72
2023/06/01 06:11:24;;;;;;;17.20;8.40;;;;;;;27.24;44.21;99009.86;109349;1254;64018;-72
2023/06/01 06:13:50;;;;;;;13.10;8.70;;;;;;;27.11;44.30;99007.42;109376;1254;59133;-72
2023/06/01 06:16:17;;;;;;;13.70;8.00;;;;;;;27.18;44.24;99003.12;109416;1254;59001;-71
2023/06/01 06:18:44;;;;;;;14.70;8.10;;;;;;;27.18;43.99;99003.34;109027;1254;67136;-71
2023/06/01 06:21:10;;;;;;;12.60;8.40;;;;;;;27.12;43.99;99007.52;109405;1254;60139;-72
2023/06/01 06:23:39;;;;;;;11.90;7.80;;;;;;;27.25;44.05;99005.40;109360;1254;65396;-72
2023/06/01 06:26:06;;;;;;;12.30;7.50;;;;;;;27.27;43.55;99005.37;109351;1254;58987;-72
2023/06/01 06:28:33;;;;;;;10.10;7.50;;;;;;;27.17;43.66;99006.55;109392;1253;59032;-72
2023/06/01 06:31:00;;;;;;;11.10;6.70;;;;;;;27.16;43.42;99006.99;109269;1254;67081;-72
2023/06/01 06:33:27;;;;;;;7.70;6.60;;;;;;;27.04;43.09;99003.30;108998;1253;61102;-72
2023/06/01 06:35:54;;;;;;;7.30;6.20;;;;;;;26.97;43.11;99001.70;109333;1254;65478;-70
2023/06/01 06:38:20;;;;;;;10.10;7.00;;;;;;;27.02;43.13;98998.92;109337;1254;58876;-72
2023/06/01 06:40:47;;;;;;;10.50;6.80;;;;;;;27.12;43.17;99000.62;109222;1254;166360;-72
2023/06/01 06:43:15;;;;;;;9.00;6.10;;;;;;;27.32;42.99;98994.20;109393;1254;66160;-72
2023/06/01 06:45:41;;;;;;;12.00;6.90;;;;;;;27.36;42.60;98995.89;109368;1253;60729;-72
2023/06/01 06:48:08;;;;;;;9.50;6.50;;;;;;;27.35;42.68;98996.56;109355;1254;63585;-72
2023/06/01 06:50:36;;;;;;;11.40;6.70;;;;;;;27.30;42.60;98998.71;109315;1254;58961;-72
2023/06/01 06:53:03;;;;;;;8.70;6.20;;;;;;;27.34;42.46;98994.46;109347;1253;58979;-72
2023/06/01 06:55:30;;;;;;;9.10;6.30;;;;;;;27.28;41.96;98992.95;109344;1254;67209;-70
2023/06/01 06:57:57;;;;;;;11.10;6.70;;;;;;;27.07;41.51;98991.82;109411;1254;60987;-71
2023/06/01 07:00:24;;;;;;;7.20;5.80;;;;;;;26.90;42.00;98985.61;109347;1254;64051;-71
2023/06/01 07:02:51;;;;;;;7.90;5.30;;;;;;;26.96;42.12;98988.18;109340;1253;60000;-71
2023/06/01 07:05:18;;;;;;;8.40;5.90;;;;;;;26.95;41.87;98986.92;109358;1253;59058;-71
2023/06/01 07:07:44;;;;;;;10.20;6.10;;;;;;;27.01;42.27;98985.33;109387;1253;66100;-72
2023/06/01 07:10:11;;;;;;;9.70;6.00;;;;;;;27.09;42.14;98985.79;109368;1254;61076;-72
2023/06/01 07:12:37;;;;;;;8.50;6.40;;;;;;;27.08;41.87;98984.15;109364;1253;64161;-71
2023/06/01 07:15:05;;;;;;;7.70;6.90;;;;;;;26.99;42.03;98981.23;109075;1254;59114;-71
2023/06/01 07:17:31;;;;;;;9.90;6.10;;;;;;;26.96;42.10;98980.48;109351;1253;58873;-72
2023/06/01 07:20:00;;;;;;;9.20;6.50;;;;;;;26.95;42.02;98979.81;109348;1254;67073;-72
2023/06/01 07:22:27;;;;;;;8.90;5.70;;;;;;;26.89;42.21;98982.54;109364;1254;61218;-72
2023/06/01 07:24:54;;;;;;;10.10;6.00;;;;;;;26.82;42.55;98978.36;109351;1254;65162;-72
2023/06/01 07:27:21;;;;;;;10.80;6.50;;;;;;;26.56;42.65;98978.85;109340;1253;59028;-72
2023/06/01 07:29:49;;;;;;;7.30;5.30;;;;;;;26.22;43.42;98982.25;109086;1253;59066;-72
2023/06/01 07:32:15;;;;;;;7.70;5.50;;;;;;;25.86;43.14;98985.13;109358;1253;66134;-72
2023/06/01 07:34:42;;;;;;;10.20;6.40;;;;;;;25.53;44.03;98983.80;109345;1253;59724;-72
2023/06/01 07:37:09;;;;;;;9.80;5.60;;;;;;;25.42;44.32;98983.86;109151;1253;65126;-72
2023/06/01 07:39:36;;;;;;;10.60;6.20;;;;;;;25.38;44.97;98982.48;109380;1253;59244;-72
2023/06/01 07:42:02;;;;;;;11.80;6.40;;;;;;;25.35;44.92;98983.01;109352;1254;60890;-71
2023/06/01 07:44:29;;;;;;;9.40;5.40;;;;;;;25.29;45.42;98982.80;109366;1253;66135;-71
2023/06/01 07:46:56;;;;;;;7.40;5.00;;;;;;;25.21;45.77;98981.01;109358;1254;61059;-71
2023/06/01 07:49:22;;;;;;;10.00;5.40;;;;;;;25.16;45.92;98976.89;109342;1254;65223;-72
2023/06/01 07:51:51;;;;;;;8.10;5.30;;;;;;;25.14;45.69;98978.96;109330;1253;58953;-71
2023/06/01 07:54:18;;;;;;;9.70;5.20;;;;;;;25.09;45.78;98976.17;109360;1253;59043;-71
2023/06/01 07:56:45;;;;;;;8.00;5.20;;;;;;;24.99;45.44;98977.52;109302;1253;66695;-71
2023/06/01 07:59:12;;;;;;;9.00;5.70;;;;;;;24.89;45.20;98974.02;109377;1253;60080;-72
2023/06/01 08:01:39;;;;;;;11.90;6.00;;;;;;;24.85;45.91;98968.88;109348;1253;65268;-72
2023/06/01 08:04:06;;;;;;;9.80;5.10;;;;;;;24.89;46.54;98965.67;109350;1253;59007;-72
2023/06/01 08:06:35;;;;;;;8.80;4.80;;;;;;;24.96;46.70;98965.08;109326;1253;59022;-72
2023/06/01 08:09:02;;;;;;;9.10;4.60;;;;;;;25.07;46.63;98966.13;109342;1253;67112;-72
2023/06/01 08:11:29;;;;;;;7.60;4.10;;;;;;;25.14;46.47;98969.17;109376;1253;60335;-72
2023/06/01 08:13:59;;;;;;;7.00;4.30;;;;;;;25.09;46.25;98962.79;109348;1253;64202;-71
2023/06/01 08:16:26;;;;;;;7.70;4.70;;;;;;;25.04;45.70;98958.98;109311;1254;59036;-70
2023/06/01 08:18:53;;;;;;;11.90;4.70;;;;;;;24.99;45.52;98954.77;109407;1253;59036;-71
2023/06/01 08:21:20;;;;;;;8.40;4.20;;;;;;;25.00;45.36;98957.35;109385;1253;67268;-72
2023/06/01 08:23:47;;;;;;;8.00;3.60;;;;;;;24.95;44.66;98955.63;109378;1253;60310;-72
2023/06/01 08:26:13;;;;;;;6.80;4.20;;;;;;;24.89;44.99;98951.67;109376;1253;64083;-72
2023/06/01 08:28:40;;;;;;;7.10;3.90;;;;;;;24.93;44.59;98947.64;109365;1253;59072;-72
2023/06/01 08:31:07;;;;;;;6.50;3.80;;;;;;;24.96;43.86;98947.96;109229;1253;59013;-71
2023/06/01 08:33:34;;;;;;;8.20;4.10;;;;;;;24.96;43.18;98945.69;109352;1253;67126;-71
2023/06/01 08:36:01;;;;;;;13.60;4.60;;;;;;;25.00;43.03;98948.45;109363;1253;60083;-72
2023/06/01 08:38:32;;;;;;;6.20;3.20;;;;;;;25.11;42.56;98944.30;109347;1253;63746;-71
2023/06/01 08:41:03;;;;;;;4.10;3.20;;;;;;;25.10;41.18;98943.13;109345;1254;59357;-72
2023/06/01 08:43:32;;;;;;;4.60;3.00;;;;;;;25.18;41.16;98938.73;109336;1254;58852;-71
2023/06/01 08:46:00;;;;;;;12.90;3.50;;;;;;;25.31;40.04;98938.04;109359;1253;66358;-71
2023/06/01 08:48:27;;;;;;;31.40;8.30;;;;;;;25.27;39.08;98937.53;109350;1253;61611;-71
2023/06/01 08:50:56;;;;;;;5.00;3.30;;;;;;;25.18;39.96;98932.81;109207;1253;64371;-71
2023/06/01 08:53:23;;;;;;;7.00;3.40;;;;;;;25.22;39.13;98934.19;109325;1253;58934;-71
2023/06/01 08:55:54;;;;;;;64.30;10.50;;;;;;;25.28;39.29;98925.41;109372;1253;59007;-72
2023/06/01 08:58:20;;;;;;;54.40;8.30;;;;;;;25.32;39.18;98925.06;109388;1253;65738;-72
2023/06/01 09:00:49;;;;;;;21.90;5.80;;;;;;;25.41;39.60;98915.73;109367;1253;61177;-70
2023/06/01 09:03:15;;;;;;;53.80;9.80;;;;;;;25.49;39.82;98910.94;109367;1253;65163;-72
2023/06/01 09:05:42;;;;;;;34.00;6.80;;;;;;;25.55;39.59;98911.31;109359;1253;59110;-72
2023/06/01 09:08:09;;;;;;;5.80;3.40;;;;;;;25.58;39.47;98904.95;109350;1253;58973;-73
2023/06/01 09:10:36;;;;;;;6.00;3.90;;;;;;;25.68;39.48;98907.30;109366;1253;67167;-73
2023/06/01 09:13:03;;;;;;;6.20;4.20;;;;;;;25.79;39.52;98903.67;109347;1253;61240;-74
2023/06/01 09:15:29;;;;;;;8.10;4.40;;;;;;;25.83;39.82;98901.42;109351;1253;65177;-72
2023/06/01 09:18:13;;;;;;;9.30;3.60;;;;;;;25.88;40.46;98898.06;109358;1253;59174;-72
2023/06/01 09:20:41;;;;;;;9.50;3.90;;;;;;;25.98;40.20;98897.35;109392;1253;59093;-72
2023/06/01 09:23:07;;;;;;;11.20;5.10;;;;;;;26.07;40.46;98897.55;109337;1253;66034;-72
2023/06/01 09:25:34;;;;;;;7.30;4.20;;;;;;;26.12;40.31;98896.69;109335;1253;61136;-71
2023/06/01 09:28:02;;;;;;;6.90;3.70;;;;;;;26.13;39.59;98893.83;109327;1253;63318;-71
2023/06/01 09:30:43;;;;;;;5.80;3.80;;;;;;;26.07;39.35;98894.48;109184;1253;59019;-72
2023/06/01 09:33:15;;;;;;;6.40;3.80;;;;;;;26.03;39.93;98890.95;109359;1253;58877;-73
2023/06/01 09:35:49;;;;;;;7.80;3.20;;;;;;;26.04;40.28;98886.24;109371;1253;66015;-72
2023/06/01 09:38:26;;;;;;;5.30;3.20;;;;;;;26.15;40.44;98888.07;109404;1253;60944;-72
2023/06/01 09:41:01;;;;;;;6.00;3.60;;;;;;;26.31;40.37;98884.29;109046;1253;65055;-72
2023/06/01 09:43:27;;;;;;;3.90;3.00;;;;;;;26.37;39.61;98882.62;109319;1253;58971;-72
2023/06/01 09:46:08;;;;;;;6.20;3.00;;;;;;;26.48;39.39;98880.23;109350;1253;58956;-72
2023/06/01 09:48:36;;;;;;;5.40;3.50;;;;;;;26.61;39.57;98880.17;109369;1253;66200;-73
2023/06/01 09:51:03;;;;;;;5.00;2.70;;;;;;;26.67;38.75;98880.71;109081;1253;59855;-72
2023/06/01 09:53:43;;;;;;;5.30;2.80;;;;;;;26.58;38.34;98876.50;109302;1253;64152;-72
2023/06/01 09:56:10;;;;;;;;;;;;;;;26.48;37.59;98877.17;109337;1253;58964;-72
2023/06/01 09:58:39;;;;;;;4.50;3.10;;;;;;;26.35;37.55;98874.67;109373;1254;59013;-72
2023/06/01 10:01:10;;;;;;;7.40;2.80;;;;;;;26.32;37.41;98875.73;109367;1253;67126;-72
2023/06/01 10:03:41;;;;;;;5.10;3.20;;;;;;;26.34;37.09;98871.14;109364;1253;61351;-72
2023/06/01 10:06:12;;;;;;;4.20;2.90;;;;;;;26.41;36.84;98867.63;109329;1253;62581;-72
2023/06/01 10:08:39;;;;;;;6.00;3.00;;;;;;;26.52;36.45;98863.29;109328;1253;59003;-72
2023/06/01 10:11:07;;;;;;;5.50;2.80;;;;;;;26.47;35.76;98857.95;109357;1253;58908;-73
2023/06/01 10:13:35;;;;;;;5.60;3.40;;;;;;;26.38;35.43;98856.73;109388;1253;67147;-73
2023/06/01 10:16:03;;;;;;;7.30;2.70;;;;;;;26.31;35.22;98854.79;109377;1253;60034;-72
2023/06/01 10:18:30;;;;;;;5.40;3.60;;;;;;;26.26;35.84;98855.31;109394;1253;65106;-71
2023/06/01 10:20:57;;;;;;;4.40;2.80;;;;;;;26.34;36.01;98857.11;109034;1253;58972;-71
2023/06/01 10:23:24;;;;;;;4.20;2.70;;;;;;;26.41;34.76;98858.71;109368;1253;59038;-73
2023/06/01 10:25:52;;;;;;;3.40;2.40;;;;;;;26.38;33.97;98851.01;109377;1253;66209;-72
2023/06/01 10:28:21;;;;;;;3.20;2.50;;;;;;;26.32;33.89;98844.36;109353;1253;61034;-72
2023/06/01 10:31:26;;;;;;;6.70;4.00;;;;;;;26.34;34.03;98840.29;109347;1253;64139;-73
2023/06/01 10:33:55;;;;;;;4.40;2.90;;;;;;;26.43;34.68;98835.00;109367;1253;59198;-73
2023/06/01 10:36:22;;;;;;;6.50;3.10;;;;;;;26.62;35.07;98836.84;109395;1253;58880;-73
2023/06/01 10:38:48;;;;;;;6.80;3.10;;;;;;;26.73;34.82;98834.58;109063;1253;66155;-73
2023/06/01 10:41:31;;;;;;;3.80;2.60;;;;;;;26.83;34.94;98831.71;109331;1253;59802;-73
2023/06/01 10:43:58;;;;;;;5.70;2.80;;;;;;;26.97;34.33;98828.00;109366;1253;64016;-73
2023/06/01 10:46:38;;;;;;;3.90;2.60;;;;;;;26.98;33.84;98826.19;109075;1253;59396;-73
2023/06/01 10:49:05;;;;;;;4.60;2.60;;;;;;;26.96;34.14;98822.31;109371;1253;59058;-72
2023/06/01 10:51:32;;;;;;;5.30;2.70;;;;;;;27.00;33.53;98820.83;109376;1253;66029;-73
2023/06/01 10:54:25;;;;;;;4.60;2.70;;;;;;;27.03;33.47;98817.17;109388;1254;60844;-71
2023/06/01 10:57:20;;;;;;;3.60;2.70;;;;;;;27.19;34.21;98814.97;109345;1253;65273;-73
2023/06/01 11:00:18;;;;;;;7.30;3.10;;;;;;;27.28;33.56;98811.24;109428;1253;58995;-73
2023/06/01 11:02:56;;;;;;;4.50;2.70;;;;;;;27.24;33.38;98808.91;109362;1254;59020;-73
2023/06/01 11:05:41;;;;;;;7.50;2.90;;;;;;;27.24;33.13;98806.08;109305;1254;64491;-72
2023/06/01 11:08:29;;;;;;;5.80;2.80;;;;;;;27.28;33.65;98798.32;109101;1254;60966;-72
2023/06/01 11:11:02;;;;;;;7.70;2.60;;;;;;;27.40;34.39;98799.00;109306;1253;65264;-71
2023/06/01 11:13:37;;;;;;;4.60;2.50;;;;;;;27.51;34.46;98801.27;109300;1254;59071;-72
2023/06/01 11:16:04;;;;;;;4.60;2.70;;;;;;;27.60;34.13;98800.65;109341;1255;58876;-73
2023/06/01 11:18:39;;;;;;;6.80;2.90;;;;;;;27.59;32.84;98799.25;109334;1253;67131;-73
2023/06/01 11:21:08;;;;;;;4.80;2.80;;;;;;;27.30;32.07;98796.38;109338;1254;61103;-72
2023/06/01 11:23:36;;;;;;;5.20;2.90;;;;;;;27.24;33.19;98796.56;109274;1254;65449;-72